PWSweather.com
Personal Weather Stations
Station Observations
DELHOVEN
DormagenDE 41540

DormagenDE 41540

Lat: 51.083, Lon: 6.775

Elevation: 120

Station Type: WH1080

Latest ConditionsUpdated 7:10:15 AM GMT+01:01 Saturday, Oct 25, 2014
Currently Today's Max Today's Min Today's Average
Temperature 52.0°F11.1°C 54.0°F12.2°C 51.8°F11.0°C 52.5°F11.4°C
Dew Point 50.0°F10.0°C 50.0°F10.0°C 47.2°F8.4°C 48.8°F9.3°C
Winds 0.7 mph SW1.1 kmh SW 4.5 mph E7.2 kmh E - 1.9 mph 3.1 kmh
Wind Gusts 2.2 mph3.5 kmh 6.0 mph9.7 kmh - -
Humidity 93% 93% 79% 87%
Pressure 30.08 in1018.6 mb 30.08 in1018.6 mb 30.05 in1017.6 mb -
Precipitation - 0.05 in1.3 mm - -
Hour Temp Dew Point Humidity Winds Wind Gusts Pressure Precip Precip Rate Daily Precip Total
07:10 AM 52.0°F11.1°C 50.0°F10.0°C 93% 0.7 mph SW1.1 kmh SW 2.2 mph3.5 kmh 30.08 in1018.6 mb 0.00 in0.0 mm 0.00 in/hr0.0 mm/hr 0.05 in1.3 mm
07:05 AM 52.0°F11.1°C 50.0°F10.0°C 93% 0.7 mph SSW1.1 kmh SSW 2.2 mph3.5 kmh 30.08 in1018.6 mb 0.00 in0.0 mm 0.00 in/hr0.0 mm/hr 0.05 in1.3 mm
07:00 AM 52.0°F11.1°C 50.0°F10.0°C 93% 0.7 mph SSW1.1 kmh SSW 2.2 mph3.5 kmh 30.08 in1018.6 mb 0.00 in0.0 mm 0.00 in/hr0.0 mm/hr 0.05 in1.3 mm
06:55 AM 52.0°F11.1°C 50.0°F10.0°C 93% 1.6 mph 2.6 kmh 4.5 mph7.2 kmh 30.08 in1018.6 mb 0.00 in0.0 mm 0.00 in/hr0.0 mm/hr 0.04 in1.0 mm
06:50 AM 52.0°F11.1°C 50.0°F10.0°C 93% 1.6 mph E2.6 kmh E 4.5 mph7.2 kmh 30.08 in1018.6 mb 0.00 in0.0 mm 0.00 in/hr0.0 mm/hr 0.04 in1.0 mm
06:45 AM 52.0°F11.1°C 50.0°F10.0°C 93% 1.6 mph SE2.6 kmh SE 3.1 mph5.0 kmh 30.08 in1018.6 mb 0.00 in0.0 mm 0.00 in/hr0.0 mm/hr 0.04 in1.0 mm
06:40 AM 52.0°F11.1°C 50.0°F10.0°C 93% 4.5 mph E7.2 kmh E 5.4 mph8.7 kmh 30.07 in1018.3 mb 0.00 in0.0 mm 0.00 in/hr0.0 mm/hr 0.04 in1.0 mm
06:35 AM 52.0°F11.1°C 50.0°F10.0°C 93% 1.6 mph S2.6 kmh S 2.2 mph3.5 kmh 30.07 in1018.3 mb 0.00 in0.0 mm 0.00 in/hr0.0 mm/hr 0.04 in1.0 mm
06:30 AM 52.0°F11.1°C 50.0°F10.0°C 93% 3.1 mph SW5.0 kmh SW 4.5 mph7.2 kmh 30.07 in1018.3 mb 0.00 in0.0 mm 0.00 in/hr0.0 mm/hr 0.04 in1.0 mm
06:25 AM 52.0°F11.1°C 50.0°F10.0°C 93% 0.7 mph NE1.1 kmh NE 1.6 mph2.6 kmh 30.07 in1018.3 mb 0.00 in0.0 mm 0.00 in/hr0.0 mm/hr 0.04 in1.0 mm
06:20 AM 52.0°F11.1°C 49.7°F9.8°C 92% 2.2 mph W3.5 kmh W 3.8 mph6.1 kmh 30.07 in1018.3 mb 0.00 in0.0 mm 0.00 in/hr0.0 mm/hr 0.04 in1.0 mm
06:15 AM 52.0°F11.1°C 49.7°F9.8°C 92% 1.6 mph SE2.6 kmh SE 3.1 mph5.0 kmh 30.06 in1017.9 mb 0.00 in0.0 mm 0.00 in/hr0.0 mm/hr 0.04 in1.0 mm
06:10 AM 52.0°F11.1°C 49.7°F9.8°C 92% 3.1 mph S5.0 kmh S 4.5 mph7.2 kmh 30.07 in1018.3 mb 0.00 in0.0 mm 0.00 in/hr0.0 mm/hr 0.04 in1.0 mm
06:05 AM 52.0°F11.1°C 49.7°F9.8°C 92% 2.2 mph SW3.5 kmh SW 5.4 mph8.7 kmh 30.06 in1017.9 mb 0.00 in0.0 mm 0.00 in/hr0.0 mm/hr 0.04 in1.0 mm
06:00 AM 52.0°F11.1°C 49.7°F9.8°C 92% 3.1 mph E5.0 kmh E 4.5 mph7.2 kmh 30.06 in1017.9 mb 0.00 in0.0 mm 0.00 in/hr0.0 mm/hr 0.04 in1.0 mm
05:55 AM 52.0°F11.1°C 49.7°F9.8°C 92% 1.6 mph SE2.6 kmh SE 3.8 mph6.1 kmh 30.06 in1017.9 mb 0.00 in0.0 mm 0.00 in/hr0.0 mm/hr 0.04 in1.0 mm
05:50 AM 52.0°F11.1°C 49.7°F9.8°C 92% 3.1 mph WSW5.0 kmh WSW 4.5 mph7.2 kmh 30.06 in1017.9 mb 0.01 in0.3 mm 0.00 in/hr0.0 mm/hr 0.04 in1.0 mm
05:45 AM 52.0°F11.1°C 49.7°F9.8°C 92% 0.7 mph SE1.1 kmh SE 2.2 mph3.5 kmh 30.06 in1017.9 mb 0.01 in0.3 mm 0.00 in/hr0.0 mm/hr 0.04 in1.0 mm
05:40 AM 52.0°F11.1°C 49.7°F9.8°C 92% 1.6 mph SE2.6 kmh SE 3.1 mph5.0 kmh 30.06 in1017.9 mb 0.01 in0.3 mm 0.00 in/hr0.0 mm/hr 0.04 in1.0 mm
05:35 AM 52.0°F11.1°C 49.7°F9.8°C 92% 1.6 mph 2.6 kmh 2.2 mph3.5 kmh 30.06 in1017.9 mb 0.02 in0.5 mm 0.00 in/hr0.0 mm/hr 0.04 in1.0 mm
05:30 AM 52.0°F11.1°C 49.7°F9.8°C 92% 0.7 mph ENE1.1 kmh ENE 2.2 mph3.5 kmh 30.06 in1017.9 mb 0.02 in0.5 mm 0.12 in/hr3.0 mm/hr 0.04 in1.0 mm
05:25 AM 52.0°F11.1°C 49.7°F9.8°C 92% 1.6 mph E2.6 kmh E 3.1 mph5.0 kmh 30.06 in1017.9 mb 0.01 in0.3 mm 0.00 in/hr0.0 mm/hr 0.04 in1.0 mm
05:20 AM 51.8°F11.0°C 49.6°F9.8°C 92% 0.7 mph E1.1 kmh E 3.1 mph5.0 kmh 30.07 in1018.3 mb 0.01 in0.3 mm 0.00 in/hr0.0 mm/hr 0.04 in1.0 mm
05:15 AM 51.8°F11.0°C 49.3°F9.6°C 91% 2.2 mph S3.5 kmh S 6.0 mph9.7 kmh 30.07 in1018.3 mb 0.01 in0.3 mm 0.00 in/hr0.0 mm/hr 0.04 in1.0 mm
05:10 AM 52.0°F11.1°C 49.4°F9.7°C 91% 2.2 mph W3.5 kmh W 3.1 mph5.0 kmh 30.06 in1017.9 mb 0.01 in0.3 mm 0.00 in/hr0.0 mm/hr 0.04 in1.0 mm
05:05 AM 52.0°F11.1°C 49.4°F9.7°C 91% 2.2 mph SE3.5 kmh SE 5.4 mph8.7 kmh 30.06 in1017.9 mb 0.01 in0.3 mm 0.00 in/hr0.0 mm/hr 0.04 in1.0 mm
05:00 AM 52.0°F11.1°C 49.4°F9.7°C 91% 2.2 mph SE3.5 kmh SE 5.4 mph8.7 kmh 30.06 in1017.9 mb 0.01 in0.3 mm 0.00 in/hr0.0 mm/hr 0.04 in1.0 mm
04:55 AM 52.0°F11.1°C 49.4°F9.7°C 91% 3.1 mph E5.0 kmh E 4.5 mph7.2 kmh 30.06 in1017.9 mb 0.01 in0.3 mm 0.00 in/hr0.0 mm/hr 0.04 in1.0 mm
04:50 AM 52.0°F11.1°C 49.4°F9.7°C 91% 2.2 mph S3.5 kmh S 3.1 mph5.0 kmh 30.06 in1017.9 mb 0.01 in0.3 mm 0.00 in/hr0.0 mm/hr 0.03 in0.8 mm
04:45 AM 52.0°F11.1°C 49.4°F9.7°C 91% 0.7 mph SE1.1 kmh SE 3.1 mph5.0 kmh 30.06 in1017.9 mb 0.01 in0.3 mm 0.12 in/hr3.0 mm/hr 0.03 in0.8 mm
04:40 AM 52.0°F11.1°C 49.4°F9.7°C 91% 2.2 mph SE3.5 kmh SE 3.8 mph6.1 kmh 30.06 in1017.9 mb 0.00 in0.0 mm 0.00 in/hr0.0 mm/hr 0.03 in0.8 mm
04:35 AM 52.0°F11.1°C 49.1°F9.5°C 90% 2.2 mph S3.5 kmh S 3.8 mph6.1 kmh 30.06 in1017.9 mb 0.00 in0.0 mm 0.00 in/hr0.0 mm/hr 0.02 in0.5 mm
04:30 AM 52.0°F11.1°C 49.1°F9.5°C 90% 1.6 mph S2.6 kmh S 3.1 mph5.0 kmh 30.06 in1017.9 mb 0.00 in0.0 mm 0.00 in/hr0.0 mm/hr 0.02 in0.5 mm
04:25 AM 52.0°F11.1°C 49.1°F9.5°C 90% 1.6 mph W2.6 kmh W 3.1 mph5.0 kmh 30.06 in1017.9 mb 0.00 in0.0 mm 0.00 in/hr0.0 mm/hr 0.02 in0.5 mm
04:20 AM 52.0°F11.1°C 49.1°F9.5°C 90% 1.6 mph SW2.6 kmh SW 3.1 mph5.0 kmh 30.06 in1017.9 mb 0.00 in0.0 mm 0.00 in/hr0.0 mm/hr 0.02 in0.5 mm
04:15 AM 52.0°F11.1°C 49.1°F9.5°C 90% 4.5 mph SE7.2 kmh SE 6.0 mph9.7 kmh 30.06 in1017.9 mb 0.00 in0.0 mm 0.00 in/hr0.0 mm/hr 0.02 in0.5 mm
04:10 AM 52.0°F11.1°C 49.1°F9.5°C 90% 3.1 mph SE5.0 kmh SE 6.0 mph9.7 kmh 30.06 in1017.9 mb 0.00 in0.0 mm 0.00 in/hr0.0 mm/hr 0.02 in0.5 mm
04:05 AM 52.0°F11.1°C 49.1°F9.5°C 90% 3.1 mph SE5.0 kmh SE 5.4 mph8.7 kmh 30.06 in1017.9 mb 0.00 in0.0 mm 0.00 in/hr0.0 mm/hr 0.02 in0.5 mm
04:00 AM 52.0°F11.1°C 49.1°F9.5°C 90% 1.6 mph SSW2.6 kmh SSW 3.8 mph6.1 kmh 30.06 in1017.9 mb 0.00 in0.0 mm 0.00 in/hr0.0 mm/hr 0.02 in0.5 mm
03:55 AM 52.0°F11.1°C 48.8°F9.3°C 89% 1.6 mph SW2.6 kmh SW 3.8 mph6.1 kmh 30.06 in1017.9 mb 0.00 in0.0 mm 0.00 in/hr0.0 mm/hr 0.02 in0.5 mm
03:50 AM 52.0°F11.1°C 48.8°F9.3°C 89% 3.8 mph S6.1 kmh S 5.4 mph8.7 kmh 30.06 in1017.9 mb 0.00 in0.0 mm 0.00 in/hr0.0 mm/hr 0.02 in0.5 mm
03:45 AM 52.0°F11.1°C 48.8°F9.3°C 89% 2.2 mph SE3.5 kmh SE 4.5 mph7.2 kmh 30.06 in1017.9 mb 0.00 in0.0 mm 0.00 in/hr0.0 mm/hr 0.02 in0.5 mm
03:40 AM 52.0°F11.1°C 48.8°F9.3°C 89% 2.2 mph S3.5 kmh S 3.8 mph6.1 kmh 30.05 in1017.6 mb 0.00 in0.0 mm 0.00 in/hr0.0 mm/hr 0.02 in0.5 mm
03:35 AM 52.0°F11.1°C 48.8°F9.3°C 89% 3.1 mph SE5.0 kmh SE 3.8 mph6.1 kmh 30.06 in1017.9 mb 0.00 in0.0 mm 0.00 in/hr0.0 mm/hr 0.02 in0.5 mm
03:30 AM 52.0°F11.1°C 48.8°F9.3°C 89% 0.7 mph S1.1 kmh S 2.2 mph3.5 kmh 30.06 in1017.9 mb 0.00 in0.0 mm 0.00 in/hr0.0 mm/hr 0.02 in0.5 mm
03:25 AM 52.0°F11.1°C 48.5°F9.2°C 88% 3.1 mph S5.0 kmh S 4.5 mph7.2 kmh 30.06 in1017.9 mb 0.00 in0.0 mm 0.00 in/hr0.0 mm/hr 0.02 in0.5 mm
03:20 AM 52.0°F11.1°C 48.5°F9.2°C 88% 2.2 mph NW3.5 kmh NW 4.5 mph7.2 kmh 30.06 in1017.9 mb 0.00 in0.0 mm 0.00 in/hr0.0 mm/hr 0.02 in0.5 mm
03:15 AM 52.0°F11.1°C 48.5°F9.2°C 88% 1.6 mph SE2.6 kmh SE 2.2 mph3.5 kmh 30.06 in1017.9 mb 0.00 in0.0 mm 0.00 in/hr0.0 mm/hr 0.02 in0.5 mm
03:10 AM 52.0°F11.1°C 48.5°F9.2°C 88% 1.6 mph SW2.6 kmh SW 3.8 mph6.1 kmh 30.06 in1017.9 mb 0.00 in0.0 mm 0.00 in/hr0.0 mm/hr 0.02 in0.5 mm
03:05 AM 52.2°F11.2°C 48.4°F9.1°C 87% 2.2 mph S3.5 kmh S 3.8 mph6.1 kmh 30.05 in1017.6 mb 0.00 in0.0 mm 0.00 in/hr0.0 mm/hr 0.02 in0.5 mm
03:00 AM 52.2°F11.2°C 48.4°F9.1°C 87% 2.2 mph S3.5 kmh S 3.8 mph6.1 kmh 30.06 in1017.9 mb 0.00 in0.0 mm 0.00 in/hr0.0 mm/hr 0.02 in0.5 mm
02:55 AM 52.2°F11.2°C 48.4°F9.1°C 87% 0.7 mph S1.1 kmh S 1.6 mph2.6 kmh 30.06 in1017.9 mb 0.00 in0.0 mm 0.00 in/hr0.0 mm/hr 0.02 in0.5 mm
02:50 AM 52.2°F11.2°C 48.4°F9.1°C 87% 2.2 mph SE3.5 kmh SE 4.5 mph7.2 kmh 30.06 in1017.9 mb 0.01 in0.3 mm 0.12 in/hr3.0 mm/hr 0.02 in0.5 mm
02:45 AM 52.2°F11.2°C 48.4°F9.1°C 87% 2.2 mph NW3.5 kmh NW 4.5 mph7.2 kmh 30.06 in1017.9 mb 0.00 in0.0 mm 0.00 in/hr0.0 mm/hr 0.02 in0.5 mm
02:40 AM 52.2°F11.2°C 48.4°F9.1°C 87% 0.7 mph SE1.1 kmh SE 2.2 mph3.5 kmh 30.06 in1017.9 mb 0.00 in0.0 mm 0.00 in/hr0.0 mm/hr 0.02 in0.5 mm
02:35 AM 52.3°F11.3°C 48.6°F9.2°C 87% 1.6 mph SE2.6 kmh SE 3.1 mph5.0 kmh 30.06 in1017.9 mb 0.00 in0.0 mm 0.00 in/hr0.0 mm/hr 0.02 in0.5 mm
02:30 AM 52.3°F11.3°C 48.3°F9.1°C 86% 2.2 mph SE3.5 kmh SE 4.5 mph7.2 kmh 30.06 in1017.9 mb 0.01 in0.3 mm 0.00 in/hr0.0 mm/hr 0.02 in0.5 mm
02:25 AM 52.3°F11.3°C 48.3°F9.1°C 86% 2.2 mph SW3.5 kmh SW 3.8 mph6.1 kmh 30.06 in1017.9 mb 0.01 in0.3 mm 0.00 in/hr0.0 mm/hr 0.02 in0.5 mm
02:20 AM 52.3°F11.3°C 48.3°F9.1°C 86% 1.6 mph S2.6 kmh S 3.1 mph5.0 kmh 30.06 in1017.9 mb 0.01 in0.3 mm 0.00 in/hr0.0 mm/hr 0.02 in0.5 mm
02:15 AM 52.5°F11.4°C 48.5°F9.2°C 86% 3.1 mph SE5.0 kmh SE 4.5 mph7.2 kmh 30.06 in1017.9 mb 0.02 in0.5 mm 0.00 in/hr0.0 mm/hr 0.02 in0.5 mm
02:10 AM 52.5°F11.4°C 48.1°F8.9°C 85% 1.6 mph S2.6 kmh S 2.2 mph3.5 kmh 30.07 in1018.3 mb 0.02 in0.5 mm 0.00 in/hr0.0 mm/hr 0.02 in0.5 mm
02:05 AM 52.5°F11.4°C 48.1°F8.9°C 85% 1.6 mph S2.6 kmh S 4.5 mph7.2 kmh 30.07 in1018.3 mb 0.02 in0.5 mm 0.00 in/hr0.0 mm/hr 0.02 in0.5 mm
02:00 AM 52.5°F11.4°C 48.1°F8.9°C 85% 1.6 mph SE2.6 kmh SE 2.2 mph3.5 kmh 30.07 in1018.3 mb 0.02 in0.5 mm 0.00 in/hr0.0 mm/hr 0.02 in0.5 mm
01:55 AM 52.7°F11.5°C 48.0°F8.9°C 84% 0.7 mph SE1.1 kmh SE 1.6 mph2.6 kmh 30.07 in1018.3 mb 0.02 in0.5 mm 0.12 in/hr3.0 mm/hr 0.02 in0.5 mm
01:50 AM 52.9°F11.6°C 48.2°F9.0°C 84% 1.6 mph SE2.6 kmh SE 3.1 mph5.0 kmh 30.07 in1018.3 mb 0.01 in0.3 mm 0.00 in/hr0.0 mm/hr 0.01 in0.3 mm
01:45 AM 52.9°F11.6°C 48.2°F9.0°C 84% 0.7 mph SE1.1 kmh SE 3.1 mph5.0 kmh 30.07 in1018.3 mb 0.01 in0.3 mm 0.00 in/hr0.0 mm/hr 0.01 in0.3 mm
01:40 AM 53.1°F11.7°C 48.0°F8.9°C 83% 2.2 mph S3.5 kmh S 3.8 mph6.1 kmh 30.07 in1018.3 mb 0.01 in0.3 mm 0.00 in/hr0.0 mm/hr 0.01 in0.3 mm
01:35 AM 53.2°F11.8°C 48.2°F9.0°C 83% Calm Calm 1.6 mph2.6 kmh 30.07 in1018.3 mb 0.01 in0.3 mm 0.00 in/hr0.0 mm/hr 0.01 in0.3 mm
01:30 AM 53.2°F11.8°C 48.2°F9.0°C 83% 0.7 mph SW1.1 kmh SW 2.2 mph3.5 kmh 30.07 in1018.3 mb 0.01 in0.3 mm 0.12 in/hr3.0 mm/hr 0.01 in0.3 mm
01:25 AM 53.4°F11.9°C 48.1°F8.9°C 82% 1.6 mph S2.6 kmh S 3.1 mph5.0 kmh 30.07 in1018.3 mb 0.00 in0.0 mm 0.00 in/hr0.0 mm/hr 0.00 in0.0 mm
01:20 AM 53.6°F12.0°C 47.9°F8.8°C 81% 1.6 mph SE2.6 kmh SE 3.1 mph5.0 kmh 30.07 in1018.3 mb 0.00 in0.0 mm 0.00 in/hr0.0 mm/hr 0.00 in0.0 mm
01:15 AM 53.6°F12.0°C 47.9°F8.8°C 81% 3.8 mph S6.1 kmh S 4.5 mph7.2 kmh 30.08 in1018.6 mb 0.00 in0.0 mm 0.00 in/hr0.0 mm/hr 0.00 in0.0 mm
01:10 AM 53.8°F12.1°C 47.8°F8.8°C 80% 1.6 mph S2.6 kmh S 3.1 mph5.0 kmh 30.08 in1018.6 mb 0.00 in0.0 mm 0.00 in/hr0.0 mm/hr 0.00 in0.0 mm
01:05 AM 53.6°F12.0°C 47.6°F8.7°C 80% 3.1 mph S5.0 kmh S 3.8 mph6.1 kmh 30.08 in1018.6 mb 0.00 in0.0 mm 0.00 in/hr0.0 mm/hr 0.00 in0.0 mm
01:00 AM 53.6°F12.0°C 47.6°F8.7°C 80% 3.1 mph S5.0 kmh S 3.8 mph6.1 kmh 30.07 in1018.3 mb 0.00 in0.0 mm 0.00 in/hr0.0 mm/hr 0.00 in0.0 mm
12:55 AM 53.6°F12.0°C 47.6°F8.7°C 80% 1.6 mph E2.6 kmh E 3.1 mph5.0 kmh 30.07 in1018.3 mb 0.00 in0.0 mm 0.00 in/hr0.0 mm/hr 0.00 in0.0 mm
12:50 AM 53.6°F12.0°C 47.2°F8.4°C 79% 1.6 mph S2.6 kmh S 3.1 mph5.0 kmh 30.08 in1018.6 mb 0.00 in0.0 mm 0.00 in/hr0.0 mm/hr 0.00 in0.0 mm
12:45 AM 53.6°F12.0°C 47.2°F8.4°C 79% 0.7 mph E1.1 kmh E 2.2 mph3.5 kmh 30.07 in1018.3 mb 0.00 in0.0 mm 0.00 in/hr0.0 mm/hr 0.00 in0.0 mm
12:40 AM 53.8°F12.1°C 47.4°F8.6°C 79% 1.6 mph NE2.6 kmh NE 2.2 mph3.5 kmh 30.08 in1018.6 mb 0.00 in0.0 mm 0.00 in/hr0.0 mm/hr 0.00 in0.0 mm
12:35 AM 53.8°F12.1°C 47.4°F8.6°C 79% 1.6 mph S2.6 kmh S 2.2 mph3.5 kmh 30.07 in1018.3 mb 0.00 in0.0 mm 0.00 in/hr0.0 mm/hr 0.00 in0.0 mm
12:30 AM 53.8°F12.1°C 47.4°F8.6°C 79% 3.8 mph SE6.1 kmh SE 5.4 mph8.7 kmh 30.07 in1018.3 mb 0.00 in0.0 mm 0.00 in/hr0.0 mm/hr 0.00 in0.0 mm
12:25 AM 53.8°F12.1°C 47.4°F8.6°C 79% 3.8 mph NW6.1 kmh NW 5.4 mph8.7 kmh 30.07 in1018.3 mb 0.00 in0.0 mm 0.00 in/hr0.0 mm/hr 0.00 in0.0 mm
12:20 AM 53.8°F12.1°C 47.4°F8.6°C 79% 2.2 mph SE3.5 kmh SE 4.5 mph7.2 kmh 30.07 in1018.3 mb 0.00 in0.0 mm 0.00 in/hr0.0 mm/hr 0.00 in0.0 mm
12:15 AM 53.8°F12.1°C 47.4°F8.6°C 79% 2.2 mph ENE3.5 kmh ENE 3.8 mph6.1 kmh 30.07 in1018.3 mb 0.00 in0.0 mm 0.00 in/hr0.0 mm/hr 0.00 in0.0 mm
12:10 AM 53.8°F12.1°C 47.4°F8.6°C 79% 1.6 mph SE2.6 kmh SE 3.1 mph5.0 kmh 30.07 in1018.3 mb 0.00 in0.0 mm 0.00 in/hr0.0 mm/hr 0.00 in0.0 mm
12:05 AM 53.8°F12.1°C 47.4°F8.6°C 79% 0.7 mph SE1.1 kmh SE 2.2 mph3.5 kmh 30.07 in1018.3 mb 0.00 in0.0 mm 0.00 in/hr0.0 mm/hr 0.00 in0.0 mm
12:00 AM 54.0°F12.2°C 47.6°F8.7°C 79% 0.7 mph S1.1 kmh S 2.2 mph3.5 kmh 30.07 in1018.3 mb 0.00 in0.0 mm 0.00 in/hr0.0 mm/hr 0.00 in0.0 mm